Overseas Skopelos — V7SU9 — position and weather

sailwx.info

Track history (hours):
 
Tides and Currents Weather Stations Pressure Air Temp Water Temp Dewpoint Dewpoint Depression Visibility Wind Speed Wind Dir Waves Ship Positions

Overseas Skopelos

Last reported at 2014-Nov-01 12:24 UTC. Time now 2014-Nov-01 12:44 UTC.
Position N 31°56' E 120°14'.

Length 183 m; draft 7 m.

Type: Tanker. MMSI: 538003726.

Date/timePositionNaut miles runAvg speedWind from/ knotsBaromVisibWave heightAir tempDewpointWater temp
2014-Nov-01 12:24N 31°56' E 120°14'0 0.0
2014-Nov-01 11:30N 31°56' E 120°14'0 0.0
2014-Nov-01 10:05N 31°56' E 120°14'0 0.0
2014-Nov-01 09:30N 31°56' E 120°14'0 0.0
2014-Nov-01 08:30N 31°56' E 120°14'0 0.0
2014-Nov-01 07:12N 31°56' E 120°14'0 0.0
2014-Nov-01 06:33N 31°56' E 120°14'5 4.9
2014-Nov-01 05:33N 31°58' E 120°19'10 9.7
2014-Nov-01 04:33N 32°04' E 120°28'9 9.1
2014-Nov-01 03:33N 32°00' E 120°37'9 9.5
2014-Nov-01 02:33N 32°00' E 120°48'1010.3
2014-Nov-01 01:33N 31°51' E 120°54'1110.8
2014-Nov-01 00:33N 31°45' E 121°05'1212.3
2014-Oct-31 23:33N 31°38' E 121°16'5 4.5
2014-Oct-31 22:28N 31°34' E 121°20'0 0.0
2014-Oct-31 21:28N 31°34' E 121°20'0 0.1
2014-Oct-31 20:22N 31°34' E 121°20'0 0.1
2014-Oct-31 19:22N 31°34' E 121°20'0 0.0
2014-Oct-31 18:28N 31°34' E 121°20'0 0.0
2014-Oct-31 17:22N 31°34' E 121°20'0 0.0
2014-Oct-31 16:34N 31°34' E 121°20'0 0.0
2014-Oct-31 15:34N 31°34' E 121°20'0 0.0
2014-Oct-31 14:16N 31°34' E 121°20'0 0.0
2014-Oct-31 13:10N 31°34' E 121°20'1 1.2
2014-Oct-31 12:33N 31°34' E 121°21'10 9.9
2014-Oct-31 11:33N 31°27' E 121°29'6 6.2
2014-Oct-31 10:33N 31°23' E 121°35'9 8.9
2014-Oct-31 09:33N 31°18' E 121°43'  
Track history (hours):
 
Tides and Currents Weather Stations Pressure Air Temp Water Temp Dewpoint Dewpoint Depression Visibility Wind Speed Wind Dir Waves Ship Positions

Overseas Skopelos

Last reported at 2014-Nov-01 12:24 UTC. Time now 2014-Nov-01 12:44 UTC.
Position N 31°56' E 120°14'.

Length 183 m; draft 7 m.

Type: Tanker. MMSI: 538003726.

Date/timePositionNaut miles runAvg speedWind from/ knotsBaromVisibWave heightAir tempDewpointWater temp
2014-Nov-01 12:24N 31°56' E 120°14'0 0.0
2014-Nov-01 11:30N 31°56' E 120°14'0 0.0
2014-Nov-01 10:05N 31°56' E 120°14'0 0.0
2014-Nov-01 09:30N 31°56' E 120°14'0 0.0
2014-Nov-01 08:30N 31°56' E 120°14'0 0.0
2014-Nov-01 07:12N 31°56' E 120°14'0 0.0
2014-Nov-01 06:33N 31°56' E 120°14'5 4.9
2014-Nov-01 05:33N 31°58' E 120°19'10 9.7
2014-Nov-01 04:33N 32°04' E 120°28'9 9.1
2014-Nov-01 03:33N 32°00' E 120°37'9 9.5
2014-Nov-01 02:33N 32°00' E 120°48'1010.3
2014-Nov-01 01:33N 31°51' E 120°54'1110.8
2014-Nov-01 00:33N 31°45' E 121°05'1212.3
2014-Oct-31 23:33N 31°38' E 121°16'5 4.5
2014-Oct-31 22:28N 31°34' E 121°20'0 0.0
2014-Oct-31 21:28N 31°34' E 121°20'0 0.1
2014-Oct-31 20:22N 31°34' E 121°20'0 0.1
2014-Oct-31 19:22N 31°34' E 121°20'0 0.0
2014-Oct-31 18:28N 31°34' E 121°20'0 0.0
2014-Oct-31 17:22N 31°34' E 121°20'0 0.0
2014-Oct-31 16:34N 31°34' E 121°20'0 0.0
2014-Oct-31 15:34N 31°34' E 121°20'0 0.0
2014-Oct-31 14:16N 31°34' E 121°20'0 0.0
2014-Oct-31 13:10N 31°34' E 121°20'1 1.2
2014-Oct-31 12:33N 31°34' E 121°21'10 9.9
2014-Oct-31 11:33N 31°27' E 121°29'6 6.2
2014-Oct-31 10:33N 31°23' E 121°35'9 8.9
2014-Oct-31 09:33N 31°18' E 121°43'  

Dump ship's entire track history